Archival Weather

Heathrow

Heathrow, United Kingdom (EGLL)

Report from: Thursday, June 23, 2022 11:50 PM BST
Current time: Tuesday, August 16, 2022 7:24 AM BST

Current weather
Weather history
Weather forecast

Temperature17.0°C (62.6°F)
Dew point11.0°C (51.8°F)
Winds 8 kts (4.1 m/s, 9.2 mph) South-Southwest (210°)
Visibility6.2 mi. (10 km)
Clouds Sky clear
Altimeter29.74 in.Hg (1007 mB)
Relative humidity68 %
Density altitude632 ft. (193 m)
Remarks Fully automated report
No clouds detected
No significant changes expected in the next two hours
Flight conditions Visual Meteorological Conditions
Raw dataEGLL 232250Z AUTO 21008KT 9999 NCD 17/11 Q1007 NOSIG
An error has occurred. This application may no longer respond until reloaded. Reload 🗙